Altenburg, Missouri
Current Conditions -  °F | °C
As of 7:52 AM on Tuesday 27 Jan 2015 (Local Time) from KMDH Reporting Station
Haze Haze  
Wind Chill: 33°   Ceiling: Unl
Heat Index: 33°   Visibility: 6mi
Dew Point: 30°   Wind: 3mph
Humidity: 89%   Direction: 320°NW
Pressure: 30.08"   Gusts: NA
Location:  37.63°N, 89.59°W
Report Text: KMDH 271352Z 32003KT 6SM BR CLR 01/M01 A3008 RMK AO2 SLP187 T00061011
Loading
Personal Weather Stations






























Interactive Weather Map New forecast layout! Learn more

10-Day Weather Forecast

Advertisements
Track Severe Weather on mobile